Meteo Giornale » Osservazioni meteo Stati Uniti (USA) » Asheville Asheville
ore: 12:54 - Osservazioni Meteo Asheville Asheville
Lat. 35° 25' N Lon. 82° 32' W Alt. 660 metri s.l.m.
31 °C
Sereno
Temp. 24 Ore
18 °C
31 °C
Nord/NOvest
18.5 Km/h
Dew point 19 °C
Umidità 48 %
Visibilità 10 Km
Il sole sorge alle ore 07:02
Il sole tramonta alle ore 19:57
| Data e Ora | Cielo e Fenomeni | T °C | DP °C | Um. % | Pres. hPa | Vis. km | Vento km/h | |
|---|---|---|---|---|---|---|---|---|
| Oggi h: 12:54 | Sereno | 31 | 19 | 48 | 1023 | 10 | N/NO 18.5 | |
| Oggi h: 11:54 | Sereno | 29 | 19 | 54 | 1023 | 10 | N/NO 16.7 | |
| Oggi h: 10:54 | Sereno | 27 | 20 | 65 | 1024 | 10 | N 13 | |
| Oggi h: 09:54 | Sereno | 23 | 19 | 78 | 1024 | 10 | N/NO 7.4 | |
| Oggi h: 08:54 | Sereno | 22 | 19 | 83 | 1024 | 10 | N 5.5 | |
| Oggi h: 07:54 | Sereno | 19 | 18 | 93 | 1023 | 10 | N 5.5 | |
| Oggi h: 06:54 | Sereno | 19 | 18 | 93 | 1023 | 11 | N 0 | |
| Oggi h: 06:34 | Nuvoloso | 19 | 18 | 93 | 1023 | 10 | N 0 | |
| Oggi h: 06:03 | Molto Nuvoloso | 19 | 18 | 93 | 1022 | 13 | N 0 | |
| Oggi h: 05:54 | Foschia | 18 | 18 | 100 | 1022 | 3 | N 0 | |
| Oggi h: 04:54 | Nuvoloso | 19 | 18 | 93 | 1022 | 14 | N 0 | |
| Oggi h: 04:25 | Nuvoloso | 20 | 19 | 93 | 1023 | 10 | N 0 | |
| Oggi h: 03:54 | Molto Nuvoloso | 19 | 19 | 100 | 1023 | 10 | N 0 | |
| Oggi h: 03:23 | Foschia | 19 | 19 | 100 | 1023 | 8 | N 0 | |
| Oggi h: 03:14 | Nuvoloso | 19 | 19 | 100 | 1023 | 11 | N 0 | |
| Oggi h: 02:54 | Sereno | 21 | 19 | 88 | 1023 | 10 | N 0 | |
| Oggi h: 01:54 | Sereno | 21 | 19 | 88 | 1023 | 10 | N 0 | |
| Oggi h: 00:54 | Sereno | 21 | 19 | 88 | 1023 | 10 | N 0 | |
| Ieri h: 23:54 | Sereno | 22 | 20 | 88 | 1023 | 10 | N 0 | |
| Ieri h: 22:54 | Sereno | 22 | 20 | 88 | 1023 | 10 | N 0 | |
| Ieri h: 21:54 | Sereno | 23 | 21 | 88 | 1023 | 10 | N 0 | |
| Ieri h: 20:54 | Sereno | 24 | 21 | 83 | 1022 | 10 | N 0 | |
| Ieri h: 19:54 | Sereno | 26 | 19 | 65 | 1022 | 10 | N 5.5 | |
| Ieri h: 18:54 | Sereno | 27 | 20 | 65 | 1022 | 10 | S 9.3 | |
| Ieri h: 17:54 | Sereno | 27 | 19 | 61 | 1022 | 10 | N 5.5 | |
| Ieri h: 16:54 | Coperto | 26 | 19 | 65 | 1022 | 10 | N 5.5 | |
| Ieri h: 15:54 | Coperto | 26 | 19 | 65 | 1023 | 10 | N 9.3 | |
| Ieri h: 15:18 | Coperto | 28 | 20 | 61 | 1023 | 10 | N 11.1 | |
| Ieri h: 15:03 | Temporale nelle vicinanze | 30 | 17 | 45 | 1023 | 10 | N 9.3 | |
| Ieri h: 14:54 | Nuvoloso | 31 | 17 | 43 | 1023 | 10 | N 7.4 | |
| Ieri h: 13:54 | Sereno | 30 | 18 | 48 | 1023 | 10 | N/NO 9.3 | |



